sensor_id;sensor_type;location;lat;lon;timestamp;temperature;humidity
56046;DHT22;41913;51.030;3.706;2023-05-10T00:00:38;21.30;90.30
56046;DHT22;41913;51.030;3.706;2023-05-10T00:03:04;21.30;90.30
56046;DHT22;41913;51.030;3.706;2023-05-10T00:05:31;21.30;90.30
56046;DHT22;41913;51.030;3.706;2023-05-10T00:07:56;21.30;90.30
56046;DHT22;41913;51.030;3.706;2023-05-10T00:10:22;21.30;90.30
56046;DHT22;41913;51.030;3.706;2023-05-10T00:12:48;21.30;90.30
56046;DHT22;41913;51.030;3.706;2023-05-10T00:15:14;21.30;90.30
56046;DHT22;41913;51.030;3.706;2023-05-10T00:17:39;21.30;90.30
56046;DHT22;41913;51.030;3.706;2023-05-10T00:20:06;21.30;90.30
56046;DHT22;41913;51.030;3.706;2023-05-10T00:22:32;21.30;90.30
56046;DHT22;41913;51.030;3.706;2023-05-10T00:24:58;21.30;90.30
56046;DHT22;41913;51.030;3.706;2023-05-10T00:27:26;21.30;90.30
56046;DHT22;41913;51.030;3.706;2023-05-10T00:29:53;21.30;90.30
56046;DHT22;41913;51.030;3.706;2023-05-10T00:32:18;21.30;90.30
56046;DHT22;41913;51.030;3.706;2023-05-10T00:34:44;21.30;90.30
56046;DHT22;41913;51.030;3.706;2023-05-10T00:37:10;21.30;90.30
56046;DHT22;41913;51.030;3.706;2023-05-10T00:39:35;21.30;90.30
56046;DHT22;41913;51.030;3.706;2023-05-10T00:42:02;21.30;90.30
56046;DHT22;41913;51.030;3.706;2023-05-10T00:44:29;21.30;90.30
56046;DHT22;41913;51.030;3.706;2023-05-10T00:46:56;21.30;90.30
56046;DHT22;41913;51.030;3.706;2023-05-10T00:49:22;21.30;90.20
56046;DHT22;41913;51.030;3.706;2023-05-10T00:51:48;21.30;90.20
56046;DHT22;41913;51.030;3.706;2023-05-10T00:54:14;21.30;90.20
56046;DHT22;41913;51.030;3.706;2023-05-10T00:56:41;21.30;90.20
56046;DHT22;41913;51.030;3.706;2023-05-10T00:59:09;21.30;90.20
56046;DHT22;41913;51.030;3.706;2023-05-10T01:01:35;21.30;90.20
56046;DHT22;41913;51.030;3.706;2023-05-10T01:04:01;21.30;90.20
56046;DHT22;41913;51.030;3.706;2023-05-10T01:06:28;21.30;90.20
56046;DHT22;41913;51.030;3.706;2023-05-10T01:08:54;21.30;90.20
56046;DHT22;41913;51.030;3.706;2023-05-10T01:11:21;21.30;90.20
56046;DHT22;41913;51.030;3.706;2023-05-10T01:13:55;21.20;90.20
56046;DHT22;41913;51.030;3.706;2023-05-10T01:16:22;21.30;90.20
56046;DHT22;41913;51.030;3.706;2023-05-10T01:18:48;21.20;90.20
56046;DHT22;41913;51.030;3.706;2023-05-10T01:21:38;21.30;90.20
56046;DHT22;41913;51.030;3.706;2023-05-10T01:27:19;21.20;90.20
56046;DHT22;41913;51.030;3.706;2023-05-10T01:31:22;21.20;90.20
56046;DHT22;41913;51.030;3.706;2023-05-10T01:41:34;21.20;90.20
56046;DHT22;41913;51.030;3.706;2023-05-10T01:44:18;21.20;90.20
56046;DHT22;41913;51.030;3.706;2023-05-10T01:46:55;21.20;90.20
56046;DHT22;41913;51.030;3.706;2023-05-10T01:49:29;21.20;90.20
56046;DHT22;41913;51.030;3.706;2023-05-10T01:52:06;21.20;90.20
56046;DHT22;41913;51.030;3.706;2023-05-10T01:54:35;21.20;90.20
56046;DHT22;41913;51.030;3.706;2023-05-10T01:57:06;21.20;90.20
56046;DHT22;41913;51.030;3.706;2023-05-10T01:59:35;21.20;90.20
56046;DHT22;41913;51.030;3.706;2023-05-10T02:02:02;21.20;90.20
56046;DHT22;41913;51.030;3.706;2023-05-10T02:04:31;21.20;90.10
56046;DHT22;41913;51.030;3.706;2023-05-10T02:06:59;21.20;90.10
56046;DHT22;41913;51.030;3.706;2023-05-10T02:09:25;21.20;90.10
56046;DHT22;41913;51.030;3.706;2023-05-10T02:11:52;21.20;90.10
56046;DHT22;41913;51.030;3.706;2023-05-10T02:14:19;21.20;90.10
56046;DHT22;41913;51.030;3.706;2023-05-10T02:16:46;21.20;90.10
56046;DHT22;41913;51.030;3.706;2023-05-10T02:19:13;21.20;90.10
56046;DHT22;41913;51.030;3.706;2023-05-10T02:21:40;21.20;90.10
56046;DHT22;41913;51.030;3.706;2023-05-10T02:24:08;21.20;90.10
56046;DHT22;41913;51.030;3.706;2023-05-10T02:26:35;21.20;90.10
56046;DHT22;41913;51.030;3.706;2023-05-10T02:29:05;21.20;90.10
56046;DHT22;41913;51.030;3.706;2023-05-10T02:31:33;21.20;90.00
56046;DHT22;41913;51.030;3.706;2023-05-10T02:34:01;21.10;90.00
56046;DHT22;41913;51.030;3.706;2023-05-10T02:36:27;21.20;90.00
56046;DHT22;41913;51.030;3.706;2023-05-10T02:38:54;21.20;90.00
56046;DHT22;41913;51.030;3.706;2023-05-10T02:41:22;21.10;90.00
56046;DHT22;41913;51.030;3.706;2023-05-10T02:43:51;21.20;90.00
56046;DHT22;41913;51.030;3.706;2023-05-10T02:46:17;21.20;90.00
56046;DHT22;41913;51.030;3.706;2023-05-10T02:48:43;21.10;90.00
56046;DHT22;41913;51.030;3.706;2023-05-10T02:51:12;21.10;90.00
56046;DHT22;41913;51.030;3.706;2023-05-10T02:53:43;21.10;90.00
56046;DHT22;41913;51.030;3.706;2023-05-10T02:56:34;21.10;90.00
56046;DHT22;41913;51.030;3.706;2023-05-10T02:59:01;21.10;90.00
56046;DHT22;41913;51.030;3.706;2023-05-10T03:01:26;21.10;90.00
56046;DHT22;41913;51.030;3.706;2023-05-10T03:03:52;21.10;90.00
56046;DHT22;41913;51.030;3.706;2023-05-10T03:06:18;21.10;90.00
56046;DHT22;41913;51.030;3.706;2023-05-10T03:08:44;21.10;90.00
56046;DHT22;41913;51.030;3.706;2023-05-10T03:16:46;21.10;90.00
56046;DHT22;41913;51.030;3.706;2023-05-10T03:19:30;21.10;90.00
56046;DHT22;41913;51.030;3.706;2023-05-10T03:21:59;21.10;90.00
56046;DHT22;41913;51.030;3.706;2023-05-10T03:24:30;21.10;90.00
56046;DHT22;41913;51.030;3.706;2023-05-10T03:26:59;21.10;90.00
56046;DHT22;41913;51.030;3.706;2023-05-10T03:29:28;21.10;90.00
56046;DHT22;41913;51.030;3.706;2023-05-10T03:31:55;21.10;90.00
56046;DHT22;41913;51.030;3.706;2023-05-10T03:34:24;21.10;89.90
56046;DHT22;41913;51.030;3.706;2023-05-10T03:36:50;21.10;89.90
56046;DHT22;41913;51.030;3.706;2023-05-10T03:39:16;21.10;89.90
56046;DHT22;41913;51.030;3.706;2023-05-10T03:41:42;21.10;89.90
56046;DHT22;41913;51.030;3.706;2023-05-10T03:44:07;21.10;89.90
56046;DHT22;41913;51.030;3.706;2023-05-10T03:46:33;21.10;89.80
56046;DHT22;41913;51.030;3.706;2023-05-10T03:48:59;21.10;89.80
56046;DHT22;41913;51.030;3.706;2023-05-10T03:51:25;21.10;89.80
56046;DHT22;41913;51.030;3.706;2023-05-10T03:53:54;21.10;89.80
56046;DHT22;41913;51.030;3.706;2023-05-10T03:56:20;21.10;89.80
56046;DHT22;41913;51.030;3.706;2023-05-10T03:58:46;21.10;89.80
56046;DHT22;41913;51.030;3.706;2023-05-10T04:01:12;21.10;89.80
56046;DHT22;41913;51.030;3.706;2023-05-10T04:03:40;21.10;89.80
56046;DHT22;41913;51.030;3.706;2023-05-10T04:06:05;21.10;89.70
56046;DHT22;41913;51.030;3.706;2023-05-10T04:08:33;21.10;89.80
56046;DHT22;41913;51.030;3.706;2023-05-10T04:11:10;21.10;89.80
56046;DHT22;41913;51.030;3.706;2023-05-10T04:13:36;21.10;89.70
56046;DHT22;41913;51.030;3.706;2023-05-10T04:16:02;21.10;89.70
56046;DHT22;41913;51.030;3.706;2023-05-10T04:18:28;21.10;89.70
56046;DHT22;41913;51.030;3.706;2023-05-10T04:20:53;21.10;89.70
56046;DHT22;41913;51.030;3.706;2023-05-10T04:23:19;21.10;90.10
56046;DHT22;41913;51.030;3.706;2023-05-10T04:25:45;21.10;89.70
56046;DHT22;41913;51.030;3.706;2023-05-10T04:28:11;21.10;89.70
56046;DHT22;41913;51.030;3.706;2023-05-10T04:30:36;21.10;89.70
56046;DHT22;41913;51.030;3.706;2023-05-10T04:33:03;21.10;89.70
56046;DHT22;41913;51.030;3.706;2023-05-10T04:35:29;21.10;89.70
56046;DHT22;41913;51.030;3.706;2023-05-10T04:37:54;21.10;89.60
56046;DHT22;41913;51.030;3.706;2023-05-10T04:40:21;21.10;89.70
56046;DHT22;41913;51.030;3.706;2023-05-10T04:42:47;21.10;90.00
56046;DHT22;41913;51.030;3.706;2023-05-10T04:45:13;21.10;89.60
56046;DHT22;41913;51.030;3.706;2023-05-10T04:47:40;21.10;89.60
56046;DHT22;41913;51.030;3.706;2023-05-10T04:50:06;21.10;89.60
56046;DHT22;41913;51.030;3.706;2023-05-10T04:52:32;21.00;89.60
56046;DHT22;41913;51.030;3.706;2023-05-10T04:54:58;21.10;89.60
56046;DHT22;41913;51.030;3.706;2023-05-10T04:57:24;21.00;89.60
56046;DHT22;41913;51.030;3.706;2023-05-10T04:59:51;21.00;89.60
56046;DHT22;41913;51.030;3.706;2023-05-10T05:02:17;21.10;89.60
56046;DHT22;41913;51.030;3.706;2023-05-10T05:04:43;21.00;89.60
56046;DHT22;41913;51.030;3.706;2023-05-10T05:07:09;21.00;89.60
56046;DHT22;41913;51.030;3.706;2023-05-10T05:09:35;21.00;89.50
56046;DHT22;41913;51.030;3.706;2023-05-10T05:12:01;21.10;89.60
56046;DHT22;41913;51.030;3.706;2023-05-10T05:14:27;21.00;89.50
56046;DHT22;41913;51.030;3.706;2023-05-10T05:16:53;21.00;89.60
56046;DHT22;41913;51.030;3.706;2023-05-10T05:19:19;21.00;89.60
56046;DHT22;41913;51.030;3.706;2023-05-10T05:21:45;21.00;89.60
56046;DHT22;41913;51.030;3.706;2023-05-10T05:24:11;21.00;89.50
56046;DHT22;41913;51.030;3.706;2023-05-10T05:26:39;21.00;89.50
56046;DHT22;41913;51.030;3.706;2023-05-10T05:29:04;21.00;89.60
56046;DHT22;41913;51.030;3.706;2023-05-10T05:31:30;21.10;89.80
56046;DHT22;41913;51.030;3.706;2023-05-10T05:33:59;21.10;89.90
56046;DHT22;41913;51.030;3.706;2023-05-10T05:36:24;21.20;90.30
56046;DHT22;41913;51.030;3.706;2023-05-10T05:38:50;21.20;90.80
56046;DHT22;41913;51.030;3.706;2023-05-10T05:41:16;21.30;91.40
56046;DHT22;41913;51.030;3.706;2023-05-10T05:43:42;21.40;91.80
56046;DHT22;41913;51.030;3.706;2023-05-10T05:46:07;21.40;92.00
56046;DHT22;41913;51.030;3.706;2023-05-10T05:48:33;21.50;91.90
56046;DHT22;41913;51.030;3.706;2023-05-10T05:50:59;21.50;91.80
56046;DHT22;41913;51.030;3.706;2023-05-10T05:53:24;21.60;91.80
56046;DHT22;41913;51.030;3.706;2023-05-10T05:55:51;21.60;91.60
56046;DHT22;41913;51.030;3.706;2023-05-10T05:58:18;21.60;91.50
56046;DHT22;41913;51.030;3.706;2023-05-10T06:00:45;21.60;91.30
56046;DHT22;41913;51.030;3.706;2023-05-10T06:03:10;21.60;91.20
56046;DHT22;41913;51.030;3.706;2023-05-10T06:05:36;21.60;91.10
56046;DHT22;41913;51.030;3.706;2023-05-10T06:08:02;21.60;91.00
56046;DHT22;41913;51.030;3.706;2023-05-10T06:10:27;21.60;91.00
56046;DHT22;41913;51.030;3.706;2023-05-10T06:12:53;21.50;90.90
56046;DHT22;41913;51.030;3.706;2023-05-10T06:15:19;21.50;90.90
56046;DHT22;41913;51.030;3.706;2023-05-10T06:17:45;21.50;90.80
56046;DHT22;41913;51.030;3.706;2023-05-10T06:20:12;21.50;90.80
56046;DHT22;41913;51.030;3.706;2023-05-10T06:22:38;21.50;91.00
56046;DHT22;41913;51.030;3.706;2023-05-10T06:25:04;21.50;90.70
56046;DHT22;41913;51.030;3.706;2023-05-10T06:27:30;21.50;90.60
56046;DHT22;41913;51.030;3.706;2023-05-10T06:29:55;21.40;90.60
56046;DHT22;41913;51.030;3.706;2023-05-10T06:32:21;21.50;90.60
56046;DHT22;41913;51.030;3.706;2023-05-10T06:34:47;21.40;90.50
56046;DHT22;41913;51.030;3.706;2023-05-10T06:37:13;21.40;90.50
56046;DHT22;41913;51.030;3.706;2023-05-10T06:39:38;21.40;90.40
56046;DHT22;41913;51.030;3.706;2023-05-10T06:42:04;21.40;90.40
56046;DHT22;41913;51.030;3.706;2023-05-10T06:44:30;21.40;90.40
56046;DHT22;41913;51.030;3.706;2023-05-10T06:46:57;21.40;90.40
56046;DHT22;41913;51.030;3.706;2023-05-10T06:49:23;21.40;90.40
56046;DHT22;41913;51.030;3.706;2023-05-10T06:51:48;21.40;90.30
56046;DHT22;41913;51.030;3.706;2023-05-10T06:54:15;21.30;90.30
56046;DHT22;41913;51.030;3.706;2023-05-10T06:56:41;21.30;90.30
56046;DHT22;41913;51.030;3.706;2023-05-10T06:59:07;21.30;90.20
56046;DHT22;41913;51.030;3.706;2023-05-10T07:01:32;21.30;90.20
56046;DHT22;41913;51.030;3.706;2023-05-10T07:03:58;21.30;90.20
56046;DHT22;41913;51.030;3.706;2023-05-10T07:06:24;21.30;90.20
56046;DHT22;41913;51.030;3.706;2023-05-10T07:08:49;21.30;90.20
56046;DHT22;41913;51.030;3.706;2023-05-10T07:11:15;21.30;90.20
56046;DHT22;41913;51.030;3.706;2023-05-10T07:13:41;21.30;90.20
56046;DHT22;41913;51.030;3.706;2023-05-10T07:16:09;21.30;90.20
56046;DHT22;41913;51.030;3.706;2023-05-10T07:18:35;21.30;90.20
56046;DHT22;41913;51.030;3.706;2023-05-10T07:21:01;21.30;90.20
56046;DHT22;41913;51.030;3.706;2023-05-10T07:23:28;21.30;90.10
56046;DHT22;41913;51.030;3.706;2023-05-10T07:25:55;21.30;90.10
56046;DHT22;41913;51.030;3.706;2023-05-10T07:28:23;21.20;90.00
56046;DHT22;41913;51.030;3.706;2023-05-10T07:30:49;21.20;90.00
56046;DHT22;41913;51.030;3.706;2023-05-10T07:33:16;21.20;90.00
56046;DHT22;41913;51.030;3.706;2023-05-10T07:35:42;21.20;90.00
56046;DHT22;41913;51.030;3.706;2023-05-10T07:38:08;21.20;90.00
56046;DHT22;41913;51.030;3.706;2023-05-10T07:40:36;21.20;90.00
56046;DHT22;41913;51.030;3.706;2023-05-10T07:43:01;21.20;90.00
56046;DHT22;41913;51.030;3.706;2023-05-10T07:45:28;21.20;90.00
56046;DHT22;41913;51.030;3.706;2023-05-10T07:47:53;21.20;90.00
56046;DHT22;41913;51.030;3.706;2023-05-10T07:50:19;21.20;89.90
56046;DHT22;41913;51.030;3.706;2023-05-10T07:52:46;21.20;89.90
56046;DHT22;41913;51.030;3.706;2023-05-10T07:55:13;21.20;89.90
56046;DHT22;41913;51.030;3.706;2023-05-10T07:57:38;21.20;89.90
56046;DHT22;41913;51.030;3.706;2023-05-10T08:00:05;21.20;89.80
56046;DHT22;41913;51.030;3.706;2023-05-10T08:02:32;21.20;89.80
56046;DHT22;41913;51.030;3.706;2023-05-10T08:04:57;21.20;89.80
56046;DHT22;41913;51.030;3.706;2023-05-10T08:07:24;21.10;89.70
56046;DHT22;41913;51.030;3.706;2023-05-10T08:09:50;21.10;89.70
56046;DHT22;41913;51.030;3.706;2023-05-10T08:12:17;21.10;89.60
56046;DHT22;41913;51.030;3.706;2023-05-10T08:14:42;21.10;89.60
56046;DHT22;41913;51.030;3.706;2023-05-10T08:17:08;21.10;89.60
56046;DHT22;41913;51.030;3.706;2023-05-10T08:19:34;21.10;89.60
56046;DHT22;41913;51.030;3.706;2023-05-10T08:22:00;21.10;89.60
56046;DHT22;41913;51.030;3.706;2023-05-10T08:24:25;21.10;89.60
56046;DHT22;41913;51.030;3.706;2023-05-10T08:26:51;21.10;89.60
56046;DHT22;41913;51.030;3.706;2023-05-10T08:29:19;21.10;89.60
56046;DHT22;41913;51.030;3.706;2023-05-10T08:31:44;21.10;89.60
56046;DHT22;41913;51.030;3.706;2023-05-10T08:34:10;21.10;89.60
56046;DHT22;41913;51.030;3.706;2023-05-10T08:36:36;21.10;89.50
56046;DHT22;41913;51.030;3.706;2023-05-10T08:39:01;21.10;89.60
56046;DHT22;41913;51.030;3.706;2023-05-10T08:41:28;21.10;89.50
56046;DHT22;41913;51.030;3.706;2023-05-10T08:43:54;21.10;89.50
56046;DHT22;41913;51.030;3.706;2023-05-10T08:46:22;21.10;89.50
56046;DHT22;41913;51.030;3.706;2023-05-10T08:48:49;21.10;89.50
56046;DHT22;41913;51.030;3.706;2023-05-10T08:51:18;21.10;89.50
56046;DHT22;41913;51.030;3.706;2023-05-10T08:53:45;21.10;89.50
56046;DHT22;41913;51.030;3.706;2023-05-10T08:56:11;21.10;89.50
56046;DHT22;41913;51.030;3.706;2023-05-10T08:58:38;21.10;89.50
56046;DHT22;41913;51.030;3.706;2023-05-10T09:01:04;21.10;89.50
56046;DHT22;41913;51.030;3.706;2023-05-10T09:03:31;21.10;89.50
56046;DHT22;41913;51.030;3.706;2023-05-10T09:05:57;21.10;89.50
56046;DHT22;41913;51.030;3.706;2023-05-10T09:08:26;21.10;89.50
56046;DHT22;41913;51.030;3.706;2023-05-10T09:10:53;21.10;89.50
56046;DHT22;41913;51.030;3.706;2023-05-10T09:13:19;21.10;89.40
56046;DHT22;41913;51.030;3.706;2023-05-10T09:15:47;21.10;89.50
56046;DHT22;41913;51.030;3.706;2023-05-10T09:18:13;21.10;89.40
56046;DHT22;41913;51.030;3.706;2023-05-10T09:20:39;21.10;89.40
56046;DHT22;41913;51.030;3.706;2023-05-10T09:23:05;21.10;89.50
56046;DHT22;41913;51.030;3.706;2023-05-10T09:25:31;21.00;89.50
56046;DHT22;41913;51.030;3.706;2023-05-10T09:27:59;21.10;89.50
56046;DHT22;41913;51.030;3.706;2023-05-10T09:30:30;21.00;89.50
56046;DHT22;41913;51.030;3.706;2023-05-10T09:32:59;21.00;89.40
56046;DHT22;41913;51.030;3.706;2023-05-10T09:35:27;21.00;89.40
56046;DHT22;41913;51.030;3.706;2023-05-10T09:37:55;21.00;89.30
56046;DHT22;41913;51.030;3.706;2023-05-10T09:40:23;21.00;89.30
56046;DHT22;41913;51.030;3.706;2023-05-10T09:45:31;21.00;89.30
56046;DHT22;41913;51.030;3.706;2023-05-10T09:47:58;21.00;89.20
56046;DHT22;41913;51.030;3.706;2023-05-10T09:50:24;21.00;89.20
56046;DHT22;41913;51.030;3.706;2023-05-10T09:52:54;21.00;89.20
56046;DHT22;41913;51.030;3.706;2023-05-10T09:55:22;21.00;89.20
56046;DHT22;41913;51.030;3.706;2023-05-10T09:57:50;21.00;89.20
56046;DHT22;41913;51.030;3.706;2023-05-10T10:00:23;21.00;89.10
56046;DHT22;41913;51.030;3.706;2023-05-10T10:02:59;21.00;89.00
56046;DHT22;41913;51.030;3.706;2023-05-10T10:05:30;21.00;88.90
56046;DHT22;41913;51.030;3.706;2023-05-10T10:07:57;21.00;88.90
56046;DHT22;41913;51.030;3.706;2023-05-10T10:10:27;21.00;88.90
56046;DHT22;41913;51.030;3.706;2023-05-10T10:12:54;21.00;88.80
56046;DHT22;41913;51.030;3.706;2023-05-10T10:15:21;21.00;88.80
56046;DHT22;41913;51.030;3.706;2023-05-10T10:17:48;21.00;88.70
56046;DHT22;41913;51.030;3.706;2023-05-10T10:20:15;21.00;88.70
56046;DHT22;41913;51.030;3.706;2023-05-10T10:22:41;21.00;88.70
56046;DHT22;41913;51.030;3.706;2023-05-10T10:25:08;21.00;88.80
56046;DHT22;41913;51.030;3.706;2023-05-10T10:35:44;21.00;88.80
56046;DHT22;41913;51.030;3.706;2023-05-10T10:38:12;21.00;88.70
56046;DHT22;41913;51.030;3.706;2023-05-10T10:40:38;21.00;88.80
56046;DHT22;41913;51.030;3.706;2023-05-10T10:43:23;21.00;88.80
56046;DHT22;41913;51.030;3.706;2023-05-10T10:46:12;21.00;88.70
56046;DHT22;41913;51.030;3.706;2023-05-10T10:48:48;21.00;88.70
56046;DHT22;41913;51.030;3.706;2023-05-10T10:51:14;21.00;88.70
56046;DHT22;41913;51.030;3.706;2023-05-10T10:53:40;20.90;88.70
56046;DHT22;41913;51.030;3.706;2023-05-10T10:56:08;21.00;88.80
56046;DHT22;41913;51.030;3.706;2023-05-10T10:58:36;21.00;88.80
56046;DHT22;41913;51.030;3.706;2023-05-10T11:01:12;21.00;88.80
56046;DHT22;41913;51.030;3.706;2023-05-10T11:03:38;21.00;88.80
56046;DHT22;41913;51.030;3.706;2023-05-10T11:06:04;21.00;88.70
56046;DHT22;41913;51.030;3.706;2023-05-10T11:08:31;21.00;88.80
56046;DHT22;41913;51.030;3.706;2023-05-10T11:13:33;21.00;88.80
56046;DHT22;41913;51.030;3.706;2023-05-10T11:16:19;21.00;88.80
56046;DHT22;41913;51.030;3.706;2023-05-10T11:19:12;21.00;88.70
56046;DHT22;41913;51.030;3.706;2023-05-10T11:22:11;21.00;88.70
56046;DHT22;41913;51.030;3.706;2023-05-10T11:24:34;21.00;88.80
56046;DHT22;41913;51.030;3.706;2023-05-10T11:27:01;21.00;89.00
56046;DHT22;41913;51.030;3.706;2023-05-10T11:29:26;21.00;89.10
56046;DHT22;41913;51.030;3.706;2023-05-10T11:31:52;21.00;89.10
56046;DHT22;41913;51.030;3.706;2023-05-10T11:34:30;21.00;89.20
56046;DHT22;41913;51.030;3.706;2023-05-10T11:36:57;21.00;89.20
56046;DHT22;41913;51.030;3.706;2023-05-10T11:39:28;21.00;89.20
56046;DHT22;41913;51.030;3.706;2023-05-10T11:41:54;21.10;89.20
56046;DHT22;41913;51.030;3.706;2023-05-10T11:44:20;21.00;89.10
56046;DHT22;41913;51.030;3.706;2023-05-10T11:46:46;21.00;89.10
56046;DHT22;41913;51.030;3.706;2023-05-10T11:49:11;21.10;89.20
56046;DHT22;41913;51.030;3.706;2023-05-10T11:51:39;21.00;89.10
56046;DHT22;41913;51.030;3.706;2023-05-10T11:54:09;21.10;89.20
56046;DHT22;41913;51.030;3.706;2023-05-10T11:56:36;21.10;89.20
56046;DHT22;41913;51.030;3.706;2023-05-10T11:59:01;21.10;89.20
56046;DHT22;41913;51.030;3.706;2023-05-10T12:01:28;21.10;89.20
56046;DHT22;41913;51.030;3.706;2023-05-10T12:03:56;21.00;89.20
56046;DHT22;41913;51.030;3.706;2023-05-10T12:06:30;21.10;89.20
56046;DHT22;41913;51.030;3.706;2023-05-10T12:08:57;21.10;89.20
56046;DHT22;41913;51.030;3.706;2023-05-10T12:11:27;21.10;89.30
56046;DHT22;41913;51.030;3.706;2023-05-10T12:13:54;21.10;89.30
56046;DHT22;41913;51.030;3.706;2023-05-10T12:16:25;21.10;89.30
56046;DHT22;41913;51.030;3.706;2023-05-10T12:18:52;21.10;89.30
56046;DHT22;41913;51.030;3.706;2023-05-10T12:21:21;21.10;89.30
56046;DHT22;41913;51.030;3.706;2023-05-10T12:24:09;21.10;89.30
56046;DHT22;41913;51.030;3.706;2023-05-10T12:26:35;21.10;89.30
56046;DHT22;41913;51.030;3.706;2023-05-10T12:29:18;21.10;89.30
56046;DHT22;41913;51.030;3.706;2023-05-10T12:31:57;21.10;89.30
56046;DHT22;41913;51.030;3.706;2023-05-10T12:34:34;21.10;89.40
56046;DHT22;41913;51.030;3.706;2023-05-10T12:37:02;21.10;89.30
56046;DHT22;41913;51.030;3.706;2023-05-10T12:39:39;21.10;89.40
56046;DHT22;41913;51.030;3.706;2023-05-10T12:42:05;21.10;89.40
56046;DHT22;41913;51.030;3.706;2023-05-10T12:44:31;21.10;89.40
56046;DHT22;41913;51.030;3.706;2023-05-10T12:46:57;21.10;89.40
56046;DHT22;41913;51.030;3.706;2023-05-10T12:49:22;21.10;89.40
56046;DHT22;41913;51.030;3.706;2023-05-10T12:51:48;21.10;89.40
56046;DHT22;41913;51.030;3.706;2023-05-10T12:54:15;21.10;89.40
56046;DHT22;41913;51.030;3.706;2023-05-10T12:56:40;21.10;89.40
56046;DHT22;41913;51.030;3.706;2023-05-10T12:59:08;21.10;89.40
56046;DHT22;41913;51.030;3.706;2023-05-10T13:01:33;21.10;89.40
56046;DHT22;41913;51.030;3.706;2023-05-10T13:03:59;21.10;89.40
56046;DHT22;41913;51.030;3.706;2023-05-10T13:06:25;21.10;89.40
56046;DHT22;41913;51.030;3.706;2023-05-10T13:08:51;21.10;89.40
56046;DHT22;41913;51.030;3.706;2023-05-10T13:11:17;21.10;89.40
56046;DHT22;41913;51.030;3.706;2023-05-10T13:13:45;21.10;89.40
56046;DHT22;41913;51.030;3.706;2023-05-10T13:16:10;21.10;89.40
56046;DHT22;41913;51.030;3.706;2023-05-10T13:18:36;21.10;89.50
56046;DHT22;41913;51.030;3.706;2023-05-10T13:21:02;21.10;89.40
56046;DHT22;41913;51.030;3.706;2023-05-10T13:23:29;21.10;89.50
56046;DHT22;41913;51.030;3.706;2023-05-10T13:25:55;21.10;89.50
56046;DHT22;41913;51.030;3.706;2023-05-10T13:28:20;21.10;89.50
56046;DHT22;41913;51.030;3.706;2023-05-10T13:30:46;21.10;89.50
56046;DHT22;41913;51.030;3.706;2023-05-10T13:33:12;21.10;89.50
56046;DHT22;41913;51.030;3.706;2023-05-10T13:35:37;21.10;89.50
56046;DHT22;41913;51.030;3.706;2023-05-10T13:38:03;21.10;89.50
56046;DHT22;41913;51.030;3.706;2023-05-10T13:40:29;21.10;89.50
56046;DHT22;41913;51.030;3.706;2023-05-10T13:42:54;21.10;89.50
56046;DHT22;41913;51.030;3.706;2023-05-10T13:45:20;21.10;89.50
56046;DHT22;41913;51.030;3.706;2023-05-10T13:47:46;21.10;89.50
56046;DHT22;41913;51.030;3.706;2023-05-10T13:50:12;21.10;89.50
56046;DHT22;41913;51.030;3.706;2023-05-10T13:52:38;21.10;89.50
56046;DHT22;41913;51.030;3.706;2023-05-10T13:55:03;21.10;89.60
56046;DHT22;41913;51.030;3.706;2023-05-10T13:57:29;21.10;89.50
56046;DHT22;41913;51.030;3.706;2023-05-10T13:59:55;21.10;90.00
56046;DHT22;41913;51.030;3.706;2023-05-10T14:02:22;21.10;89.50
56046;DHT22;41913;51.030;3.706;2023-05-10T14:04:48;21.10;89.50
56046;DHT22;41913;51.030;3.706;2023-05-10T14:07:14;21.10;89.50
56046;DHT22;41913;51.030;3.706;2023-05-10T14:09:39;21.10;89.50
56046;DHT22;41913;51.030;3.706;2023-05-10T14:12:05;21.10;89.50
56046;DHT22;41913;51.030;3.706;2023-05-10T14:14:31;21.10;89.50
56046;DHT22;41913;51.030;3.706;2023-05-10T14:16:56;21.10;89.50
56046;DHT22;41913;51.030;3.706;2023-05-10T14:19:22;21.10;89.50
56046;DHT22;41913;51.030;3.706;2023-05-10T14:21:48;21.10;89.50
56046;DHT22;41913;51.030;3.706;2023-05-10T14:24:14;21.10;89.50
56046;DHT22;41913;51.030;3.706;2023-05-10T14:26:40;21.10;89.50
56046;DHT22;41913;51.030;3.706;2023-05-10T14:29:06;21.10;89.50
56046;DHT22;41913;51.030;3.706;2023-05-10T14:31:33;21.10;89.50
56046;DHT22;41913;51.030;3.706;2023-05-10T14:33:58;21.10;89.50
56046;DHT22;41913;51.030;3.706;2023-05-10T14:36:24;21.10;89.50
56046;DHT22;41913;51.030;3.706;2023-05-10T14:38:50;21.10;89.50
56046;DHT22;41913;51.030;3.706;2023-05-10T14:41:16;21.10;89.50
56046;DHT22;41913;51.030;3.706;2023-05-10T14:43:43;21.10;89.60
56046;DHT22;41913;51.030;3.706;2023-05-10T14:46:08;21.10;89.50
56046;DHT22;41913;51.030;3.706;2023-05-10T14:48:34;21.10;89.60
56046;DHT22;41913;51.030;3.706;2023-05-10T14:51:00;21.10;89.60
56046;DHT22;41913;51.030;3.706;2023-05-10T14:53:26;21.10;89.50
56046;DHT22;41913;51.030;3.706;2023-05-10T14:55:51;21.10;89.60
56046;DHT22;41913;51.030;3.706;2023-05-10T14:58:17;21.10;89.60
56046;DHT22;41913;51.030;3.706;2023-05-10T15:00:43;21.10;89.60
56046;DHT22;41913;51.030;3.706;2023-05-10T15:03:09;21.10;89.60
56046;DHT22;41913;51.030;3.706;2023-05-10T15:05:34;21.10;89.60
56046;DHT22;41913;51.030;3.706;2023-05-10T15:08:03;21.10;89.60
56046;DHT22;41913;51.030;3.706;2023-05-10T15:10:28;21.10;89.60
56046;DHT22;41913;51.030;3.706;2023-05-10T15:12:54;21.10;89.60
56046;DHT22;41913;51.030;3.706;2023-05-10T15:15:20;21.10;89.60
56046;DHT22;41913;51.030;3.706;2023-05-10T15:17:45;21.10;89.60
56046;DHT22;41913;51.030;3.706;2023-05-10T15:20:11;21.10;89.60
56046;DHT22;41913;51.030;3.706;2023-05-10T15:22:37;21.10;89.70
56046;DHT22;41913;51.030;3.706;2023-05-10T15:25:04;21.10;89.60
56046;DHT22;41913;51.030;3.706;2023-05-10T15:27:30;21.10;89.70
56046;DHT22;41913;51.030;3.706;2023-05-10T15:29:55;21.10;89.60
56046;DHT22;41913;51.030;3.706;2023-05-10T15:32:21;21.10;89.60
56046;DHT22;41913;51.030;3.706;2023-05-10T15:34:47;21.10;89.60
56046;DHT22;41913;51.030;3.706;2023-05-10T15:37:12;21.10;89.60
56046;DHT22;41913;51.030;3.706;2023-05-10T15:39:38;21.10;89.60
56046;DHT22;41913;51.030;3.706;2023-05-10T15:42:04;21.10;89.60
56046;DHT22;41913;51.030;3.706;2023-05-10T15:44:30;21.10;89.60
56046;DHT22;41913;51.030;3.706;2023-05-10T15:46:55;21.10;89.60
56046;DHT22;41913;51.030;3.706;2023-05-10T15:49:21;21.10;89.60
56046;DHT22;41913;51.030;3.706;2023-05-10T15:51:46;21.10;89.60
56046;DHT22;41913;51.030;3.706;2023-05-10T15:54:12;21.10;89.60
56046;DHT22;41913;51.030;3.706;2023-05-10T15:56:38;21.10;89.60
56046;DHT22;41913;51.030;3.706;2023-05-10T15:59:04;21.10;89.70
56046;DHT22;41913;51.030;3.706;2023-05-10T16:01:35;21.10;89.70